Time;durP1;ratioP1;P1;durP2;ratioP2;P2;SDS_P1;SDS_P2;PMS_P1;PMS_P2;Temp;Humidity;BMP_temperature;BMP_pressure;BME280_temperature;BME280_humidity;BME280_pressure;Samples;Min_cycle;Max_cycle;Signal;HPM_P1;HPM_P2
2022/11/17 00:00:22;;;;;;;;;5.25;5.25;;;;;13.42;100.00;97904.22;6256964;22;45052;-84
2022/11/17 00:02:48;;;;;;;;;8.00;8.00;;;;;13.40;100.00;97912.28;6257180;22;45295;-85
2022/11/17 00:05:13;;;;;;;;;7.75;3.00;;;;;13.45;100.00;97896.06;6255630;22;47169;-85
2022/11/17 00:07:39;;;;;;;;;7.00;5.33;;;;;13.49;100.00;97915.47;6255818;22;44700;-84
2022/11/17 00:10:05;;;;;;;;;9.25;3.75;;;;;13.50;100.00;97912.75;6231534;22;45858;-85
2022/11/17 00:15:52;;;;;;;;;9.50;7.25;;;;;13.56;100.00;97912.47;6259383;22;45296;-85
2022/11/17 00:21:18;;;;;;;;;4.25;3.00;;;;;13.49;100.00;97895.00;6260493;22;45303;-85
2022/11/17 00:23:46;;;;;;;;;3.00;3.00;;;;;13.52;100.00;97894.88;6232228;22;44737;-86
2022/11/17 00:26:16;;;;;;;;;4.33;4.00;;;;;13.62;100.00;97908.69;6260283;22;46289;-86
2022/11/17 00:28:42;;;;;;;;;9.00;5.00;;;;;13.49;100.00;97887.00;6231315;22;46246;-86
2022/11/17 00:34:04;;;;;;;;;6.00;4.00;;;;;13.51;100.00;97898.47;6237267;22;45345;-85
2022/11/17 00:36:35;;;;;;;;;3.00;2.67;;;;;13.42;100.00;97887.34;6231449;22;46217;-86
2022/11/17 00:39:01;;;;;;;;;6.00;3.00;;;;;13.54;100.00;97903.69;6232021;22;45290;-85
2022/11/17 00:41:27;;;;;;;;;7.00;4.33;;;;;13.51;100.00;97898.47;6230970;22;45317;-85
2022/11/17 00:43:53;;;;;;;;;6.33;3.33;;;;;13.48;100.00;97895.06;6229851;22;45449;-85
2022/11/17 00:46:18;;;;;;;;;6.33;4.33;;;;;13.53;100.00;97919.75;6229622;22;46502;-85
2022/11/17 00:48:44;;;;;;;;;2.75;2.75;;;;;13.54;100.00;97900.16;6230759;22;45522;-84
2022/11/17 00:51:09;;;;;;;;;3.50;2.25;;;;;13.54;100.00;97913.50;6231698;22;44704;-85
2022/11/17 00:53:35;;;;;;;;;8.75;5.75;;;;;13.38;100.00;97879.44;6256792;22;44955;-85
2022/11/17 00:56:00;;;;;;;;;4.75;2.75;;;;;13.54;100.00;97910.81;6257778;22;45305;-85
2022/11/17 00:58:26;;;;;;;;;3.00;2.75;;;;;13.54;100.00;97932.19;6259571;22;45305;-85
2022/11/17 01:04:14;;;;;;;;;6.00;4.33;;;;;13.59;100.00;97935.50;6257552;22;44768;-85
2022/11/17 01:06:47;;;;;;;;;4.50;3.50;;;;;13.55;100.00;97926.78;6257388;22;45634;-84
2022/11/17 01:09:23;;;;;;;;;4.00;3.00;;;;;13.55;100.00;97937.47;6230192;22;45371;-85
2022/11/17 01:11:50;;;;;;;;;3.75;2.00;;;;;13.50;100.00;97925.25;6230690;22;45346;-85
2022/11/17 01:14:28;;;;;;;;;3.50;1.00;;;;;13.61;100.00;97936.31;6229834;22;45525;-85
2022/11/17 01:16:54;;;;;;;;;5.00;3.25;;;;;13.58;100.00;97929.31;6258603;22;47093;-84
2022/11/17 01:19:21;;;;;;;;;5.00;2.50;;;;;13.50;100.00;97917.22;6231317;22;45757;-85
2022/11/17 01:21:46;;;;;;;;;2.00;2.00;;;;;13.55;100.00;97944.59;6231254;22;45263;-85
2022/11/17 01:24:14;;;;;;;;;4.25;2.50;;;;;13.54;100.00;97945.53;6259911;22;44702;-85
2022/11/17 01:26:41;;;;;;;;;3.00;2.00;;;;;13.58;100.00;97942.66;6254310;22;47607;-86
2022/11/17 01:29:09;;;;;;;;;4.75;3.50;;;;;13.60;100.00;97951.47;6261742;22;45874;-86
2022/11/17 01:31:38;;;;;;;;;1.00;1.00;;;;;13.60;100.00;97954.16;6287263;22;45358;-86
2022/11/17 01:34:04;;;;;;;;;2.50;2.50;;;;;13.64;100.00;97973.56;6262527;22;45302;-86
2022/11/17 01:39:27;;;;;;;;;0.25;0.25;;;;;13.65;100.00;97996.66;6288996;22;45183;-86
2022/11/17 01:41:54;;;;;;;;;1.50;1.00;;;;;13.70;100.00;98000.03;6261475;22;45434;-86
2022/11/17 01:44:35;;;;;;;;;1.00;1.00;;;;;13.72;100.00;97987.47;6261505;22;45370;-86
2022/11/17 01:47:03;;;;;;;;;1.00;1.00;;;;;13.70;100.00;97999.16;6290282;22;45283;-86
2022/11/17 01:49:29;;;;;;;;;1.00;1.00;;;;;13.67;100.00;97989.47;6290567;22;44707;-85
2022/11/17 01:52:01;;;;;;;;;1.00;0.75;;;;;13.69;100.00;97997.41;6291399;22;45391;-86
2022/11/17 01:54:29;;;;;;;;;2.50;1.00;;;;;13.67;100.00;98000.13;6263333;22;45388;-84
2022/11/17 01:57:01;;;;;;;;;2.50;0.75;;;;;13.69;100.00;98019.63;6290388;22;46289;-85
2022/11/17 01:59:37;;;;;;;;;0.00;0.00;;;;;13.69;100.00;98000.94;6290421;22;45219;-85
2022/11/17 02:02:03;;;;;;;;;3.00;0.00;;;;;13.60;100.00;97990.66;6260741;22;45307;-85
2022/11/17 02:04:37;;;;;;;;;2.25;1.00;;;;;13.70;100.00;97999.16;6287893;22;45477;-85
2022/11/17 02:07:18;;;;;;;;;0.00;0.00;;;;;13.61;100.00;97995.06;6286751;22;48914;-85
2022/11/17 02:09:45;;;;;;;;;2.00;0.50;;;;;13.62;100.00;98004.81;6261113;22;45481;-85
2022/11/17 02:12:16;;;;;;;;;1.50;1.50;;;;;13.64;100.00;98010.09;6288389;22;44759;-85
2022/11/17 02:14:42;;;;;;;;;1.25;1.25;;;;;13.63;100.00;98019.91;6291006;22;45307;-86
2022/11/17 02:17:11;;;;;;;;;2.00;1.00;;;;;13.63;100.00;98014.56;6262639;22;47108;-86
2022/11/17 02:19:41;;;;;;;;;1.75;1.75;;;;;13.53;100.00;98035.47;6288881;22;45255;-86
2022/11/17 02:22:25;;;;;;;;;1.25;1.25;;;;;13.46;100.00;98038.44;6290539;22;45603;-86
2022/11/17 02:25:14;;;;;;;;;1.25;1.25;;;;;13.36;100.00;98028.13;6263276;22;44721;-85
2022/11/17 02:27:55;;;;;;;;;1.50;1.50;;;;;13.39;100.00;98037.81;6259324;22;45782;-85
2022/11/17 02:30:22;;;;;;;;;4.25;2.75;;;;;13.35;100.00;98031.75;6258218;22;45307;-86
2022/11/17 02:33:01;;;;;;;;;2.00;1.00;;;;;13.39;100.00;98024.44;6257300;22;45215;-86
2022/11/17 02:35:44;;;;;;;;;2.00;1.50;;;;;13.35;100.00;98021.06;6233610;22;45449;-86
2022/11/17 02:38:31;;;;;;;;;3.00;1.25;;;;;13.36;100.00;98033.47;6230487;22;47710;-86
2022/11/17 02:41:16;;;;;;;;;2.50;1.00;;;;;13.34;100.00;98037.13;6232003;22;45363;-86
2022/11/17 02:44:07;;;;;;;;;1.50;0.75;;;;;13.34;100.00;98039.81;6257467;22;45306;-86
2022/11/17 02:46:42;;;;;;;;;0.00;0.00;;;;;13.33;100.00;98046.94;6231553;22;45580;-86
2022/11/17 02:49:17;;;;;;;;;0.00;0.00;;;;;13.37;100.00;98045.91;6259538;22;45450;-86
2022/11/17 02:51:42;;;;;;;;;0.75;0.50;;;;;13.39;100.00;98059.16;6230067;22;45616;-86
2022/11/17 02:54:11;;;;;;;;;1.50;1.00;;;;;13.44;100.00;98059.00;6231500;22;45491;-84
2022/11/17 02:56:41;;;;;;;;;0.25;0.25;;;;;13.46;100.00;98059.81;6257807;22;45351;-86
2022/11/17 02:59:07;;;;;;;;;2.00;0.00;;;;;13.44;100.00;98056.31;6230425;22;46627;-85
2022/11/17 03:01:47;;;;;;;;;1.00;1.00;;;;;13.49;100.00;98065.88;6258001;22;45228;-85
2022/11/17 03:04:34;;;;;;;;;3.00;1.00;;;;;13.50;100.00;98069.41;6258862;22;45374;-85
2022/11/17 03:07:42;;;;;;;;;0.00;0.00;;;;;13.48;100.00;98087.31;6230885;22;44923;-84
2022/11/17 03:10:15;;;;;;;;;1.00;1.00;;;;;13.46;100.00;98086.50;6166918;23;46968;-85
2022/11/17 03:13:11;;;;;;;;;1.00;0.00;;;;;13.46;100.00;98110.53;6169015;23;45268;-85
2022/11/17 03:15:41;;;;;;;;;2.00;0.00;;;;;13.19;100.00;98132.88;6168942;22;45350;-85
2022/11/17 03:18:20;;;;;;;;;0.00;0.00;;;;;12.88;100.00;98143.81;6193525;23;44746;-85
2022/11/17 03:20:55;;;;;;;;;2.25;1.00;;;;;12.68;100.00;98151.66;6188557;22;45383;-84
2022/11/17 03:23:32;;;;;;;;;1.00;0.00;;;;;12.51;100.00;98149.63;6169523;23;45293;-85
2022/11/17 03:26:07;;;;;;;;;2.75;0.50;;;;;12.38;100.00;98159.81;6174740;22;45372;-84
2022/11/17 03:28:32;;;;;;;;;0.75;0.25;;;;;12.28;100.00;98161.06;6197793;22;45761;-85
2022/11/17 03:31:00;;;;;;;;;0.00;0.00;;;;;12.27;100.00;98180.66;6197571;22;47313;-85
2022/11/17 03:33:27;;;;;;;;;1.00;1.00;;;;;12.19;100.00;98165.78;6198306;22;45423;-85
2022/11/17 03:36:03;;;;;;;;;0.25;0.00;;;;;12.10;100.00;98174.09;6199239;22;45287;-84
2022/11/17 03:38:35;;;;;;;;;0.00;0.00;;;;;12.09;100.00;98185.66;6197737;22;44824;-84
2022/11/17 03:41:03;;;;;;;;;0.00;0.00;;;;;12.04;100.00;98184.06;6196951;22;47063;-84
2022/11/17 03:43:31;;;;;;;;;1.00;1.00;;;;;12.02;100.00;98189.47;6200764;22;45380;-85
2022/11/17 03:46:04;;;;;;;;;0.00;0.00;;;;;12.03;100.00;98180.53;6229456;22;45307;-84
2022/11/17 03:48:47;;;;;;;;;0.75;0.00;;;;;11.97;100.00;98197.59;6287453;22;45228;-84
2022/11/17 03:51:27;;;;;;;;;0.25;0.25;;;;;11.97;100.00;98218.03;6287661;22;45411;-84
2022/11/17 03:53:53;;;;;;;;;0.00;0.00;;;;;11.97;100.00;98218.03;6291241;22;45817;-86
2022/11/17 03:56:28;;;;;;;;;0.00;0.00;;;;;11.94;100.00;98219.03;6265577;22;44801;-86
2022/11/17 03:59:02;;;;;;;;;0.25;0.00;;;;;11.89;100.00;98217.41;6291769;22;45396;-85
2022/11/17 04:01:31;;;;;;;;;0.00;0.00;;;;;11.95;100.00;98225.22;6261596;22;46709;-85
2022/11/17 04:03:59;;;;;;;;;0.00;0.00;;;;;11.92;100.00;98235.97;6262759;22;45427;-85
2022/11/17 04:06:25;;;;;;;;;0.25;0.25;;;;;11.92;100.00;98235.97;6261625;22;44822;-85
2022/11/17 04:08:51;;;;;;;;;0.00;0.00;;;;;11.91;100.00;98224.44;6261660;22;45378;-85
2022/11/17 04:16:45;;;;;;;;;0.00;0.00;;;;;11.98;100.00;98244.63;6290917;22;45432;-84
2022/11/17 04:19:10;;;;;;;;;0.75;0.00;;;;;11.98;100.00;98251.75;6290370;22;45354;-84
2022/11/17 04:21:36;;;;;;;;;1.75;1.00;;;;;11.94;100.00;98244.78;6291198;22;45284;-85
2022/11/17 04:24:01;;;;;;;;;0.00;0.00;;;;;11.98;100.00;98251.75;6290151;22;45289;-85
2022/11/17 04:29:11;;;;;;;;;0.00;0.00;;;;;11.93;100.00;98257.22;6290541;22;45266;-85
2022/11/17 04:31:36;;;;;;;;;0.00;0.00;;;;;11.88;100.00;98258.28;6261745;22;46988;-85
2022/11/17 04:34:04;;;;;;;;;0.00;0.00;;;;;11.92;100.00;98268.81;6262697;22;45359;-84
2022/11/17 04:36:42;;;;;;;;;0.00;0.00;;;;;11.97;100.00;98273.97;6263672;22;45399;-85
2022/11/17 04:39:07;;;;;;;;;0.00;0.00;;;;;11.87;100.00;98265.38;6263012;22;44878;-85
2022/11/17 04:41:52;;;;;;;;;0.00;0.00;;;;;11.87;100.00;98267.16;6263249;22;46918;-85
2022/11/17 04:44:30;;;;;;;;;0.00;0.00;;;;;11.93;100.00;98296.31;6262108;22;45255;-85
2022/11/17 04:46:56;;;;;;;;;0.00;0.00;;;;;11.95;100.00;98307.78;6262467;22;45421;-84
2022/11/17 04:49:23;;;;;;;;;0.00;0.00;;;;;11.94;100.00;98306.91;6262594;22;45275;-86
2022/11/17 04:51:50;;;;;;;;;0.00;0.00;;;;;11.90;100.00;98307.94;6262377;22;47197;-86
2022/11/17 04:54:23;;;;;;;;;0.25;0.00;;;;;11.85;100.00;98307.16;6260448;22;45306;-85
2022/11/17 04:56:50;;;;;;;;;0.00;0.00;;;;;11.76;100.00;98308.31;6262116;22;44795;-84
2022/11/17 04:59:16;;;;;;;;;0.00;0.00;;;;;11.75;100.00;98321.66;6262997;22;44840;-84
2022/11/17 05:01:45;;;;;;;;;0.00;0.00;;;;;11.59;100.00;98291.94;6288493;22;46816;-85
2022/11/17 05:04:54;;;;;;;;;0.00;0.00;;;;;11.58;100.00;98311.50;6291628;22;44901;-85
2022/11/17 05:13:20;;;;;;;;;0.00;0.00;;;;;11.64;100.00;98332.63;6289492;22;45424;-85
2022/11/17 05:13:23;;;;;;;;;1.00;1.00;;;;;11.63;100.00;98341.53;6289257;22;45310;-85
2022/11/17 05:18:35;;;;;;;;;0.75;0.00;;;;;11.56;100.00;98339.97;6291576;22;45388;-85
2022/11/17 05:21:05;;;;;;;;;0.00;0.00;;;;;11.49;100.00;98336.63;6264270;22;45308;-85
2022/11/17 05:26:15;;;;;;;;;0.00;0.00;;;;;11.49;100.00;98344.59;6285571;22;44839;-85
2022/11/17 05:28:41;;;;;;;;;0.00;0.00;;;;;11.47;100.00;98351.72;6233925;22;45342;-85
2022/11/17 05:31:07;;;;;;;;;0.00;0.00;;;;;11.43;100.00;98342.09;6261432;22;45315;-85
2022/11/17 05:33:33;;;;;;;;;0.00;0.00;;;;;11.45;100.00;98347.38;6260963;22;46279;-85
2022/11/17 05:35:59;;;;;;;;;0.00;0.00;;;;;11.38;100.00;98342.22;6233513;22;45628;-85
2022/11/17 05:38:30;;;;;;;;;2.75;0.00;;;;;11.39;100.00;98359.94;6234532;22;44652;-86
2022/11/17 05:40:55;;;;;;;;;0.00;0.00;;;;;11.38;100.00;98360.84;6260292;22;45450;-86
2022/11/17 05:43:21;;;;;;;;;0.00;0.00;;;;;11.36;100.00;98373.31;6260288;22;45428;-85
2022/11/17 05:45:47;;;;;;;;;0.00;0.00;;;;;11.35;100.00;98368.94;6260273;22;45484;-85
2022/11/17 05:48:13;;;;;;;;;1.00;0.00;;;;;11.34;100.00;98366.31;6233124;22;45251;-84
2022/11/17 05:50:39;;;;;;;;;0.00;0.00;;;;;11.31;100.00;98364.63;6261524;22;45376;-85
2022/11/17 05:53:04;;;;;;;;;0.00;0.00;;;;;11.30;100.00;98370.84;6259907;22;46102;-85
2022/11/17 05:55:30;;;;;;;;;0.00;0.00;;;;;11.27;100.00;98368.28;6230886;22;45371;-85
2022/11/17 05:58:01;;;;;;;;;1.75;0.00;;;;;11.30;100.00;98376.16;6231520;22;45751;-85
2022/11/17 06:00:28;;;;;;;;;0.00;0.00;;;;;11.29;100.00;98373.53;6259710;22;45336;-85
2022/11/17 06:03:03;;;;;;;;;2.00;0.00;;;;;11.30;100.00;98380.59;6258389;22;46950;-85
2022/11/17 06:05:28;;;;;;;;;0.00;0.00;;;;;11.31;100.00;98393.88;6259640;22;45368;-84
2022/11/17 06:07:56;;;;;;;;;4.00;0.00;;;;;11.29;100.00;98395.72;6257190;22;45351;-84
2022/11/17 06:10:22;;;;;;;;;1.75;0.00;;;;;11.34;100.00;98399.09;6231506;22;45283;-85
2022/11/17 06:12:47;;;;;;;;;1.00;0.00;;;;;11.28;100.00;98401.06;6259439;22;45749;-86
2022/11/17 06:15:13;;;;;;;;;0.00;0.00;;;;;11.32;100.00;98408.91;6259565;22;45368;-85
2022/11/17 06:18:14;;;;;;;;;1.00;1.00;;;;;11.32;100.00;98405.38;6258789;22;45338;-85
2022/11/17 06:20:47;;;;;;;;;1.00;1.00;;;;;11.33;100.00;98397.38;6257113;22;45576;-85
2022/11/17 06:23:17;;;;;;;;;0.00;0.00;;;;;11.25;100.00;98394.03;6232030;22;46594;-85
2022/11/17 06:25:43;;;;;;;;;0.00;0.00;;;;;11.29;100.00;98401.03;6260562;22;45393;-85
2022/11/17 06:28:20;;;;;;;;;3.00;0.00;;;;;11.32;100.00;98395.63;6261590;22;44784;-84
2022/11/17 06:30:49;;;;;;;;;0.00;0.00;;;;;11.30;100.00;98400.09;6265939;22;45428;-85
2022/11/17 06:33:18;;;;;;;;;0.00;0.00;;;;;11.33;100.00;98396.47;6289463;22;47418;-85
2022/11/17 06:35:46;;;;;;;;;0.00;0.00;;;;;11.36;100.00;98404.41;6290869;22;45284;-85
2022/11/17 06:38:12;;;;;;;;;1.00;1.00;;;;;11.36;100.00;98402.59;6290328;22;45537;-85
2022/11/17 06:40:37;;;;;;;;;1.50;0.00;;;;;11.34;100.00;98399.09;6263435;22;44772;-85
2022/11/17 06:43:20;;;;;;;;;2.00;0.00;;;;;11.26;100.00;98390.47;6289518;22;46840;-85
2022/11/17 06:45:46;;;;;;;;;0.00;0.00;;;;;11.35;100.00;98411.50;6292681;22;45521;-84
2022/11/17 06:48:15;;;;;;;;;0.00;0.00;;;;;11.36;100.00;98412.38;6288817;22;45388;-86
2022/11/17 06:50:41;;;;;;;;;0.00;0.00;;;;;11.40;100.00;98416.69;6263840;22;44858;-85
2022/11/17 06:53:11;;;;;;;;;0.00;0.00;;;;;11.31;100.00;98399.19;6291731;22;46241;-84
2022/11/17 06:59:06;;;;;;;;;0.50;0.50;;;;;11.34;100.00;98432.84;6291864;22;44804;-86
2022/11/17 07:01:31;;;;;;;;;0.00;0.00;;;;;11.17;100.00;98412.88;6291924;22;45373;-85
2022/11/17 07:03:56;;;;;;;;;1.00;1.00;;;;;11.25;100.00;98428.63;6292222;22;45215;-85
2022/11/17 07:06:22;;;;;;;;;1.00;1.00;;;;;11.27;100.00;98426.81;6288988;22;45309;-85
2022/11/17 07:08:49;;;;;;;;;4.00;2.75;;;;;11.26;100.00;98427.69;6290448;22;45405;-85
2022/11/17 07:11:20;;;;;;;;;2.00;1.25;;;;;11.26;100.00;98443.66;6264354;22;45463;-84
2022/11/17 07:13:46;;;;;;;;;1.25;1.25;;;;;11.24;100.00;98441.97;6262857;22;46948;-85
2022/11/17 07:16:18;;;;;;;;;0.75;0.75;;;;;11.23;100.00;98449.09;6292227;22;45335;-84
2022/11/17 07:18:44;;;;;;;;;2.50;2.50;;;;;11.20;100.00;98447.34;6265896;22;45289;-84
2022/11/17 07:21:15;;;;;;;;;0.00;0.00;;;;;11.18;100.00;98443.84;6267775;22;45621;-85
2022/11/17 07:23:44;;;;;;;;;4.00;1.75;;;;;11.22;100.00;98444.66;6292474;22;47243;-86
2022/11/17 07:26:13;;;;;;;;;1.00;1.00;;;;;11.32;100.00;98464.81;6265579;22;44709;-86
2022/11/17 07:28:44;;;;;;;;;1.50;1.50;;;;;11.41;100.00;98461.00;6290863;22;45495;-85
2022/11/17 07:31:10;;;;;;;;;2.00;1.00;;;;;11.50;100.00;98449.28;6292243;22;45855;-86
2022/11/17 07:33:42;;;;;;;;;1.25;1.25;;;;;11.56;100.00;98455.31;6266908;22;47544;-85
2022/11/17 07:39:29;;;;;;;;;1.00;1.00;;;;;11.64;100.00;98460.44;6292730;22;45494;-86
2022/11/17 07:41:55;;;;;;;;;4.00;2.00;;;;;11.71;100.00;98464.66;6294680;22;45389;-85
2022/11/17 07:44:21;;;;;;;;;2.00;2.00;;;;;11.77;100.00;98477.81;6292611;22;46091;-85
2022/11/17 07:46:47;;;;;;;;;4.67;4.67;;;;;11.75;100.00;98462.78;6289632;22;45083;-85
2022/11/17 07:49:16;;;;;;;;;6.00;2.75;;;;;11.79;100.00;98465.31;6290840;22;44792;-85
2022/11/17 07:51:52;;;;;;;;;0.25;0.25;;;;;11.84;100.00;98467.00;6292682;22;44898;-86
2022/11/17 07:54:18;;;;;;;;;2.25;2.25;;;;;12.00;100.00;98490.53;6291084;22;45216;-86
2022/11/17 07:56:44;;;;;;;;;3.00;2.00;;;;;12.07;100.00;98491.22;6264110;22;44768;-86
2022/11/17 07:59:14;;;;;;;;;2.00;2.00;;;;;11.82;100.00;98446.59;6265119;22;45449;-86
2022/11/17 08:05:05;;;;;;;;;1.50;1.00;;;;;12.12;100.00;98483.09;6293039;22;45452;-86
2022/11/17 08:07:31;;;;;;;;;3.00;2.00;;;;;12.10;100.00;98485.81;6264470;22;44727;-85
2022/11/17 08:09:56;;;;;;;;;1.00;0.00;;;;;12.07;100.00;98490.38;6264962;22;45341;-86
2022/11/17 08:12:22;;;;;;;;;2.67;2.33;;;;;12.08;100.00;98493.00;6294612;22;44824;-86
2022/11/17 08:14:51;;;;;;;;;1.25;1.25;;;;;12.08;100.00;98493.00;6292438;22;46908;-85
2022/11/17 08:17:16;;;;;;;;;2.00;1.00;;;;;12.20;100.00;98505.97;6292876;22;45884;-85
2022/11/17 08:19:55;;;;;;;;;2.75;1.00;;;;;12.18;100.00;98494.47;6265682;22;45226;-86
2022/11/17 08:22:22;;;;;;;;;1.00;1.00;;;;;12.09;100.00;98467.22;6293049;22;45242;-86
2022/11/17 08:24:47;;;;;;;;;4.00;1.00;;;;;12.21;100.00;98477.50;6266257;22;46736;-85
2022/11/17 08:27:22;;;;;;;;;0.75;0.75;;;;;12.15;100.00;98467.91;6265791;22;45448;-85
2022/11/17 08:29:51;;;;;;;;;0.50;0.50;;;;;12.43;100.00;98496.41;6266186;22;44784;-86
2022/11/17 08:32:18;;;;;;;;;2.00;2.00;;;;;12.50;100.00;98506.00;6291521;22;45397;-86
2022/11/17 08:34:44;;;;;;;;;2.25;1.25;;;;;12.41;100.00;98476.94;6290611;22;46569;-86
2022/11/17 08:37:13;;;;;;;;;2.50;1.25;;;;;12.60;100.00;98502.13;6291128;22;45410;-84
2022/11/17 08:39:39;;;;;;;;;3.25;2.00;;;;;12.72;100.00;98505.34;6267283;22;45465;-85
2022/11/17 08:42:04;;;;;;;;;1.00;1.00;;;;;12.77;100.00;98506.94;6294557;22;45578;-85
2022/11/17 08:44:31;;;;;;;;;1.00;1.00;;;;;12.80;100.00;98506.88;6294205;22;45300;-87
2022/11/17 08:47:00;;;;;;;;;0.75;0.75;;;;;12.74;100.00;98491.03;6297352;22;45385;-86
2022/11/17 08:49:35;;;;;;;;;1.00;1.00;;;;;12.67;100.00;98477.94;6295614;22;45361;-87
2022/11/17 08:52:08;;;;;;;;;4.00;2.50;;;;;12.73;100.00;98480.44;6293992;22;44746;-86
2022/11/17 08:54:34;;;;;;;;;3.00;1.00;;;;;13.01;100.00;98507.97;6268169;22;46078;-85
2022/11/17 08:57:30;;;;;;;;;3.00;0.00;;;;;12.94;100.00;98489.53;6269445;22;45359;-87
2022/11/17 09:00:19;;;;;;;;;2.00;2.00;;;;;12.78;100.00;98457.13;6271736;22;45352;-87
2022/11/17 09:02:47;;;;;;;;;2.50;1.25;;;;;13.07;100.00;98506.00;6294604;22;45420;-86
2022/11/17 09:05:19;;;;;;;;;4.50;1.75;;;;;13.04;100.00;98490.97;6300904;22;45147;-90
2022/11/17 09:07:51;;;;;;;;;2.00;1.25;;;;;13.07;100.00;98496.25;6271728;22;45832;-86
2022/11/17 09:10:20;;;;;;;;;4.75;3.00;;;;;13.15;100.00;98494.19;6271702;22;44676;-86
2022/11/17 09:17:26;;;;;;;;;;;;;;;;;;;;;
2022/11/17 09:20:00;;;;;;;;;;;;;;;;;;;;;
2022/11/17 09:28:49;;;;;;;;;3.75;3.50;;;;;12.97;100.00;98517.00;6249753;22;46856;-87
2022/11/17 09:31:28;;;;;;;;;1.75;1.25;;;;;12.63;100.00;98473.63;6268258;22;45214;-87
2022/11/17 09:34:49;;;;;;;;;;;;;;;;;;;;;
2022/11/17 09:37:29;;;;;;;;;;;;;;;;;;;;;
2022/11/17 09:40:39;;;;;;;;;2.00;1.00;;;;;12.76;100.00;98523.84;6270671;22;75887;-85
2022/11/17 10:13:41;;;;;;;;;3.33;3.33;;;;;14.17;100.00;98538.84;6228234;22;46371;-87
2022/11/17 10:16:15;;;;;;;;;5.50;2.00;;;;;14.38;100.00;98554.09;6170102;22;45329;-87
2022/11/17 10:18:40;;;;;;;;;5.00;3.00;;;;;14.55;100.00;98545.44;6144186;23;45419;-88
2022/11/17 10:21:22;;;;;;;;;;;;;;;;;;;;;
2022/11/17 10:24:09;;;;;;;;;2.67;1.67;;;;;14.82;100.00;98518.59;6172037;22;74607;-88
2022/11/17 10:26:51;;;;;;;;;3.50;2.25;;;;;15.04;100.00;98524.00;6173126;22;44769;-88
2022/11/17 10:29:56;;;;;;;;;4.00;2.00;;;;;15.26;100.00;98537.38;6179434;22;44844;-86
2022/11/17 10:33:21;;;;;;;;;;;;;;;;;;;;;
2022/11/17 10:35:55;;;;;;;;;4.00;2.75;;;;;15.45;100.00;98525.91;6264096;22;74507;-86
2022/11/17 10:38:32;;;;;;;;;3.00;3.00;;;;;15.56;100.00;98540.63;6268060;22;45345;-88
2022/11/17 10:41:11;;;;;;;;;2.00;2.00;;;;;15.58;100.00;98540.56;6296305;22;45345;-86
2022/11/17 10:43:41;;;;;;;;;2.00;0.75;;;;;15.38;100.00;98499.38;6270967;22;45335;-86
2022/11/17 10:46:15;;;;;;;;;1.00;1.00;;;;;15.69;100.00;98540.97;6268957;22;45436;-87
2022/11/17 10:49:28;;;;;;;;;1.00;1.00;;;;;15.52;100.00;98516.72;6269978;22;45255;-87
2022/11/17 10:52:14;;;;;;;;;2.00;1.25;;;;;15.50;100.00;98513.22;6200777;22;45813;-86
2022/11/17 10:55:05;;;;;;;;;0.50;0.50;;;;;15.47;100.00;98541.00;6269058;22;45391;-86
2022/11/17 10:57:31;;;;;;;;;2.75;1.25;;;;;15.23;100.00;98509.84;6268211;22;47043;-88
2022/11/17 11:00:18;;;;;;;;;2.00;0.75;;;;;15.14;100.00;98516.47;6264946;22;45281;-87
2022/11/17 11:08:24;;;;;;;;;2.00;1.25;;;;;14.60;100.00;98482.00;6253127;22;45240;-86
2022/11/17 11:14:53;;;;;;;;;0.00;0.00;;;;;14.79;100.00;98526.75;6169723;22;44850;-87
2022/11/17 11:26:15;;;;;;;;;1.00;1.00;;;;;14.93;100.00;98513.72;6251398;22;45380;-88
2022/11/17 11:32:17;;;;;;;;;1.00;1.00;;;;;14.93;100.00;98526.22;6219952;22;45329;-86
2022/11/17 11:38:39;;;;;;;;;1.00;1.00;;;;;15.06;100.00;98527.47;6232996;22;44757;-85
2022/11/17 11:56:51;;;;;;;;;1.00;0.00;;;;;15.82;100.00;98511.88;6231584;22;45337;-88
2022/11/17 11:59:49;;;;;;;;;1.00;1.00;;;;;15.83;100.00;98510.06;6207937;22;45318;-87
2022/11/17 12:02:53;;;;;;;;;;;;;;;;;;;;;
2022/11/17 12:05:43;;;;;;;;;1.00;1.00;;;;;16.09;100.00;98520.53;6234857;22;74499;-89
2022/11/17 12:14:32;;;;;;;;;1.00;1.00;;;;;16.11;100.00;98524.00;6295924;22;44762;-89
2022/11/17 12:17:45;;;;;;;;;0.00;0.00;;;;;15.95;100.00;98493.44;6271338;22;45188;-87
2022/11/17 12:23:34;;;;;;;;;1.50;1.50;;;;;16.13;100.00;98527.50;6244901;22;46947;-87
2022/11/17 12:26:29;;;;;;;;;1.25;1.00;;;;;15.86;100.00;98501.91;6268053;22;44858;-88
2022/11/17 12:29:20;;;;;;;;;1.00;1.00;;;;;15.89;100.00;98536.59;6262190;22;47116;-87
2022/11/17 12:32:37;;;;;;;;;1.00;1.00;;;;;15.64;100.00;98518.00;6267401;22;45398;-88
2022/11/17 12:38:23;;;;;;;;;0.00;0.00;;;;;15.81;97.36;98547.66;6306981;22;46542;-86
2022/11/17 12:49:29;;;;;;;;;0.00;0.00;;;;;15.78;93.98;98519.19;6312163;22;45239;-88
2022/11/17 12:52:05;;;;;;;;;0.25;0.25;;;;;15.92;95.90;98545.41;6326088;22;46489;-85
2022/11/17 12:55:23;;;;;;;;;0.75;0.75;;;;;15.92;88.47;98528.44;6324890;22;45376;-87
2022/11/17 13:14:31;;;;;;;;;0.00;0.00;;;;;15.23;96.41;98526.81;6264542;22;46132;-87
2022/11/17 13:30:59;;;;;;;;;0.00;0.00;;;;;14.94;100.00;98520.78;6267057;22;45029;-86
2022/11/17 13:33:29;;;;;;;;;0.00;0.00;;;;;15.26;100.00;98541.88;6261371;22;45192;-87
2022/11/17 14:03:43;;;;;;;;;0.00;0.00;;;;;16.04;90.96;98568.13;6185432;22;47051;-86
2022/11/17 14:11:28;;;;;;;;;0.00;0.00;;;;;15.83;93.37;98558.31;6314083;22;44827;-87
2022/11/17 14:13:59;;;;;;;;;1.00;1.00;;;;;15.91;94.36;98574.94;6300264;22;44845;-87
2022/11/17 14:24:31;;;;;;;;;1.00;1.00;;;;;15.59;94.76;98577.13;6184049;22;46236;-86
2022/11/17 14:29:37;;;;;;;;;0.50;0.50;;;;;15.34;96.61;98555.84;6272875;22;46900;-86
2022/11/17 14:32:07;;;;;;;;;1.00;1.00;;;;;15.41;96.26;98570.69;6214123;22;46855;-87
2022/11/17 14:34:35;;;;;;;;;1.00;0.00;;;;;15.45;95.98;98582.16;6292850;22;45367;-87
2022/11/17 14:37:01;;;;;;;;;0.25;0.00;;;;;15.30;97.03;98581.00;6296101;22;45806;-87
2022/11/17 14:39:53;;;;;;;;;2.00;2.00;;;;;15.31;98.17;98594.34;6270769;22;46728;-87
2022/11/17 14:42:20;;;;;;;;;0.00;0.00;;;;;15.15;98.27;98571.78;6223642;22;44789;-87
2022/11/17 14:44:49;;;;;;;;;2.00;2.00;;;;;15.22;98.20;98591.13;6290252;22;45413;-87
2022/11/17 14:47:34;;;;;;;;;2.50;1.00;;;;;15.21;98.67;98600.97;6293223;22;45270;-88
2022/11/17 14:50:09;;;;;;;;;1.00;1.00;;;;;15.04;99.57;98568.63;6294561;22;45417;-86
2022/11/17 14:55:12;;;;;;;;;0.25;0.00;;;;;15.14;100.00;98586.06;6231478;22;45536;-87
2022/11/17 14:57:42;;;;;;;;;3.00;3.00;;;;;15.22;100.00;98599.16;6205856;22;44884;-86
2022/11/17 15:00:16;;;;;;;;;1.25;1.25;;;;;15.11;100.00;98581.72;6173845;22;47203;-88
2022/11/17 15:02:42;;;;;;;;;1.75;1.75;;;;;15.19;100.00;98595.69;6204694;22;45245;-87
2022/11/17 15:05:20;;;;;;;;;1.00;1.00;;;;;15.06;100.00;98574.78;6207534;22;45364;-87
2022/11/17 15:07:46;;;;;;;;;1.50;1.50;;;;;15.18;100.00;98598.41;6206618;22;44818;-85
2022/11/17 15:10:27;;;;;;;;;0.75;0.75;;;;;14.95;100.00;98553.81;6207675;22;46681;-88
2022/11/17 15:13:03;;;;;;;;;0.25;0.25;;;;;15.04;100.00;98560.59;6234088;22;44836;-87
2022/11/17 15:15:46;;;;;;;;;2.00;2.00;;;;;15.19;100.00;98584.09;6199747;22;44845;-87
2022/11/17 15:18:58;;;;;;;;;1.00;1.00;;;;;15.05;100.00;98555.19;6175679;22;44865;-86
2022/11/17 15:21:53;;;;;;;;;0.25;0.25;;;;;15.04;100.00;98560.59;6095200;23;45638;-86
2022/11/17 15:32:39;;;;;;;;;2.00;2.00;;;;;14.85;100.00;98563.13;6273773;22;46581;-87
2022/11/17 15:37:47;;;;;;;;;1.00;1.00;;;;;14.57;100.00;98575.72;6256397;22;46238;-87
2022/11/17 15:40:25;;;;;;;;;1.00;1.00;;;;;14.28;100.00;98551.81;6260108;22;44928;-86
2022/11/17 15:54:11;;;;;;;;;2.75;1.00;;;;;14.02;100.00;98599.06;6235342;22;45074;-86
2022/11/17 15:57:12;;;;;;;;;0.75;0.75;;;;;14.08;100.00;98620.22;6238841;22;44890;-88
2022/11/17 15:59:41;;;;;;;;;2.00;2.00;;;;;13.91;100.00;98612.75;6143308;23;45294;-88
2022/11/17 16:03:15;;;;;;;;;1.25;1.25;;;;;13.95;100.00;98621.56;6163369;22;45558;-88
2022/11/17 16:14:26;;;;;;;;;1.00;0.25;;;;;13.49;100.00;98580.34;6253391;22;47197;-87
2022/11/17 16:35:12;;;;;;;;;3.00;2.50;;;;;13.38;100.00;98628.75;6264461;22;44912;-87